Time;durP1;ratioP1;P1;durP2;ratioP2;P2;SDS_P1;SDS_P2;PMS_P1;PMS_P2;Temp;Humidity;BMP_temperature;BMP_pressure;BME280_temperature;BME280_humidity;BME280_pressure;Samples;Min_cycle;Max_cycle;Signal;HPM_P1;HPM_P2
2024/01/10 00:04:40;;;;;;;9.27;5.03;;;-0.10;51.30;;;;;;10531977;28;20206;-68
2024/01/10 00:09:46;;;;;;;8.83;5.13;;;-0.10;51.20;;;;;;10541440;28;20696;-68
2024/01/10 00:14:53;;;;;;;8.53;5.33;;;-0.10;51.20;;;;;;10547630;28;20214;-68
2024/01/10 00:19:58;;;;;;;8.23;5.30;;;-0.10;51.20;;;;;;10533920;28;21353;-69
2024/01/10 00:25:09;;;;;;;8.00;5.07;;;-0.10;50.90;;;;;;10535075;28;20734;-68
2024/01/10 00:30:16;;;;;;;8.13;5.20;;;-0.10;50.80;;;;;;10523665;28;20263;-69
2024/01/10 00:35:19;;;;;;;11.63;5.07;;;-0.20;50.80;;;;;;10529214;28;20571;-69
2024/01/10 00:40:27;;;;;;;10.83;4.90;;;-0.20;50.80;;;;;;10524295;28;20245;-68
2024/01/10 00:45:36;;;;;;;8.67;5.20;;;-0.20;51.40;;;;;;10534388;28;20539;-67
2024/01/10 00:50:45;;;;;;;8.67;4.90;;;-0.20;50.70;;;;;;10553842;28;20244;-68
2024/01/10 00:55:53;;;;;;;8.17;5.10;;;-0.20;50.70;;;;;;10541952;28;20259;-67
2024/01/10 01:01:02;;;;;;;9.17;4.87;;;-0.30;50.80;;;;;;10541757;28;20756;-68
2024/01/10 01:06:11;;;;;;;8.20;5.13;;;-0.30;51.00;;;;;;10547239;28;20270;-69
2024/01/10 01:11:20;;;;;;;8.40;5.70;;;-0.30;51.10;;;;;;10530579;28;20194;-68
2024/01/10 01:16:23;;;;;;;10.17;5.60;;;-0.40;51.10;;;;;;10526951;28;20226;-68
2024/01/10 01:21:29;;;;;;;10.73;5.60;;;-0.40;51.20;;;;;;10524931;28;20259;-67
2024/01/10 01:26:41;;;;;;;10.20;5.80;;;-0.40;50.90;;;;;;10522654;28;20758;-69
2024/01/10 01:31:48;;;;;;;9.03;5.40;;;-0.50;51.30;;;;;;10528612;28;20247;-69
2024/01/10 01:37:01;;;;;;;8.83;5.13;;;-0.50;51.30;;;;;;10527474;28;20284;-68
2024/01/10 01:42:08;;;;;;;9.13;5.07;;;-0.50;51.60;;;;;;10524891;28;20229;-67
2024/01/10 01:47:15;;;;;;;9.33;5.87;;;-0.60;51.30;;;;;;10516376;28;20218;-69
2024/01/10 01:52:19;;;;;;;9.63;5.43;;;-0.60;51.50;;;;;;10529581;28;20263;-72
2024/01/10 01:57:27;;;;;;;10.33;6.37;;;-0.60;51.60;;;;;;10522497;28;20230;-69
2024/01/10 02:02:32;;;;;;;11.53;5.90;;;-0.70;51.60;;;;;;10528486;28;20217;-68
2024/01/10 02:07:38;;;;;;;8.10;5.63;;;-0.70;51.70;;;;;;10525014;28;20226;-68
2024/01/10 02:12:47;;;;;;;9.03;5.97;;;-0.70;51.80;;;;;;10519536;28;20198;-67
2024/01/10 02:17:56;;;;;;;10.13;5.50;;;-0.70;52.10;;;;;;10535881;28;20230;-68
2024/01/10 02:23:07;;;;;;;9.77;6.00;;;-0.80;51.90;;;;;;10539350;28;20225;-69
2024/01/10 02:28:16;;;;;;;10.87;6.30;;;-0.80;52.00;;;;;;10530400;28;20218;-68
2024/01/10 02:33:19;;;;;;;11.97;6.53;;;-0.90;52.10;;;;;;10513846;28;20694;-68
2024/01/10 02:38:26;;;;;;;11.87;6.50;;;-0.90;52.50;;;;;;10528135;28;20268;-67
2024/01/10 02:43:34;;;;;;;9.17;5.60;;;-0.90;52.40;;;;;;10514086;28;20270;-67
2024/01/10 02:48:37;;;;;;;9.37;5.77;;;-0.90;52.50;;;;;;10529000;28;20228;-67
2024/01/10 02:53:41;;;;;;;9.40;5.97;;;-1.00;52.60;;;;;;10518282;28;20206;-69
2024/01/10 02:58:46;;;;;;;11.73;6.57;;;-1.00;52.60;;;;;;10527236;28;20230;-69
2024/01/10 03:03:49;;;;;;;8.93;6.07;;;-1.00;52.60;;;;;;10523731;28;20198;-68
2024/01/10 03:08:53;;;;;;;10.87;6.47;;;-1.10;52.80;;;;;;10523944;28;20262;-69
2024/01/10 03:14:04;;;;;;;8.80;6.07;;;-1.10;53.40;;;;;;10525804;28;20267;-69
2024/01/10 03:19:08;;;;;;;9.13;5.67;;;-1.10;52.90;;;;;;10537687;28;20296;-69
2024/01/10 03:24:11;;;;;;;9.53;6.17;;;-1.10;52.80;;;;;;10539831;28;20217;-69
2024/01/10 03:29:16;;;;;;;12.60;6.87;;;-1.10;52.90;;;;;;10527613;28;20274;-68
2024/01/10 03:34:20;;;;;;;10.90;6.20;;;-1.20;52.80;;;;;;10531375;28;20805;-69
2024/01/10 03:39:23;;;;;;;10.03;6.03;;;-1.20;53.10;;;;;;10536602;28;20229;-68
2024/01/10 03:44:28;;;;;;;9.53;6.03;;;-1.20;53.70;;;;;;10546845;28;20291;-68
2024/01/10 03:49:32;;;;;;;11.07;7.17;;;-1.20;53.20;;;;;;10552541;28;20221;-69
2024/01/10 03:54:36;;;;;;;9.97;6.70;;;-1.20;53.40;;;;;;10549961;28;20198;-69
2024/01/10 03:59:41;;;;;;;10.37;6.70;;;-1.20;54.20;;;;;;10536862;28;20360;-68
2024/01/10 04:04:44;;;;;;;10.23;6.23;;;-1.20;53.70;;;;;;10532923;28;20233;-69
2024/01/10 04:09:48;;;;;;;11.57;6.40;;;-1.20;54.00;;;;;;10524668;28;20230;-69
2024/01/10 04:14:53;;;;;;;10.17;5.97;;;-1.20;54.10;;;;;;10533930;28;20240;-68
2024/01/10 04:19:57;;;;;;;11.40;7.13;;;-1.20;53.80;;;;;;10529050;28;20228;-69
2024/01/10 04:25:02;;;;;;;9.57;6.10;;;-1.20;53.70;;;;;;10520230;28;20223;-68
2024/01/10 04:30:08;;;;;;;11.17;6.43;;;-1.20;54.20;;;;;;10532475;28;20604;-66
2024/01/10 04:35:14;;;;;;;12.60;7.53;;;-1.20;53.70;;;;;;10534472;28;20264;-67
2024/01/10 04:40:20;;;;;;;10.57;6.47;;;-1.30;54.40;;;;;;10531121;28;20699;-67
2024/01/10 04:45:28;;;;;;;9.97;6.27;;;-1.30;53.70;;;;;;10529913;28;20246;-71
2024/01/10 04:50:31;;;;;;;9.37;5.67;;;-1.30;53.90;;;;;;10523671;28;20271;-69
2024/01/10 04:55:35;;;;;;;11.10;6.50;;;-1.30;53.90;;;;;;10539765;28;20668;-65
2024/01/10 05:00:40;;;;;;;11.20;7.07;;;-1.30;53.80;;;;;;10544250;28;20222;-68
2024/01/10 05:05:43;;;;;;;9.97;6.77;;;-1.40;53.80;;;;;;10539632;28;20198;-66
2024/01/10 05:10:50;;;;;;;10.90;6.80;;;-1.40;53.70;;;;;;10533056;27;20255;-66
2024/01/10 05:15:58;;;;;;;10.50;6.10;;;-1.40;53.80;;;;;;10534028;28;20213;-66
2024/01/10 05:21:02;;;;;;;11.37;6.83;;;-1.40;53.70;;;;;;10518094;28;20754;-67
2024/01/10 05:26:05;;;;;;;13.93;7.00;;;-1.40;53.60;;;;;;10507700;28;20247;-65
2024/01/10 05:31:12;;;;;;;11.37;6.90;;;-1.40;54.00;;;;;;10525019;28;20193;-67
2024/01/10 05:36:23;;;;;;;11.27;7.10;;;-1.40;53.60;;;;;;10539961;28;20599;-67
2024/01/10 05:41:27;;;;;;;12.00;6.97;;;-1.40;53.70;;;;;;10537106;28;20213;-66
2024/01/10 05:46:32;;;;;;;13.00;6.73;;;-1.40;54.10;;;;;;10532162;28;20250;-67
2024/01/10 05:51:35;;;;;;;11.10;6.73;;;-1.40;53.90;;;;;;10525540;28;20218;-66
2024/01/10 05:56:39;;;;;;;11.80;6.93;;;-1.40;53.70;;;;;;10540089;28;20607;-68
2024/01/10 06:01:46;;;;;;;10.90;6.80;;;-1.40;53.80;;;;;;10540085;28;20262;-66
2024/01/10 06:06:56;;;;;;;13.33;7.60;;;-1.50;53.70;;;;;;10523099;28;20215;-67
2024/01/10 06:11:59;;;;;;;13.50;8.95;;;-1.50;53.90;;;;;;10520509;28;20870;-64
2024/01/10 06:17:04;;;;;;;10.63;7.27;;;-1.40;53.80;;;;;;10520572;28;20694;-64
2024/01/10 06:22:08;;;;;;;14.37;7.90;;;-1.40;53.60;;;;;;10523501;28;20217;-64
2024/01/10 06:27:12;;;;;;;12.43;7.63;;;-1.50;53.60;;;;;;10530999;28;20225;-64
2024/01/10 06:32:16;;;;;;;13.50;7.57;;;-1.50;53.60;;;;;;10528624;28;20251;-64
2024/01/10 06:37:20;;;;;;;16.13;8.10;;;-1.50;53.50;;;;;;10531075;28;20225;-63
2024/01/10 06:42:24;;;;;;;11.47;7.60;;;-1.40;54.30;;;;;;10539509;28;20545;-63
2024/01/10 06:47:30;;;;;;;11.70;7.40;;;-1.40;53.50;;;;;;10525482;28;20758;-62
2024/01/10 06:52:40;;;;;;;13.27;7.17;;;-1.40;53.60;;;;;;10533444;28;20255;-63
2024/01/10 06:57:44;;;;;;;16.00;8.13;;;-1.40;55.30;;;;;;10543454;28;20221;-63
2024/01/10 07:02:56;;;;;;;14.50;7.55;;;-1.40;53.90;;;;;;10530088;28;20486;-63
2024/01/10 07:08:02;;;;;;;13.57;7.77;;;-1.30;53.80;;;;;;10534476;28;20220;-64
2024/01/10 07:13:06;;;;;;;12.73;7.80;;;-1.30;53.70;;;;;;10535599;28;20215;-64
2024/01/10 07:18:12;;;;;;;12.40;7.83;;;-1.30;53.80;;;;;;10520426;28;20226;-62
2024/01/10 07:23:16;;;;;;;12.23;7.90;;;-1.30;53.70;;;;;;10528862;28;20211;-64
2024/01/10 07:28:20;;;;;;;14.23;9.07;;;-1.30;53.50;;;;;;10492924;28;20230;-63
2024/01/10 07:33:24;;;;;;;13.03;7.47;;;-1.30;53.60;;;;;;10533074;28;20193;-63
2024/01/10 07:38:28;;;;;;;15.47;7.90;;;-1.20;53.30;;;;;;10535837;28;20251;-64
2024/01/10 07:43:32;;;;;;;17.03;8.47;;;-1.20;54.30;;;;;;10535489;28;20930;-62
2024/01/10 07:48:37;;;;;;;16.33;8.87;;;-1.20;53.60;;;;;;10535584;28;20239;-62
2024/01/10 07:53:41;;;;;;;13.70;8.00;;;-1.20;53.50;;;;;;10535682;28;20243;-63
2024/01/10 07:58:45;;;;;;;14.77;8.60;;;-1.20;53.20;;;;;;10535572;28;20219;-64
2024/01/10 08:03:50;;;;;;;15.37;8.83;;;-1.20;53.30;;;;;;10535896;28;20213;-62
2024/01/10 08:08:56;;;;;;;15.47;9.00;;;-1.20;53.20;;;;;;10535920;28;20222;-62
2024/01/10 08:14:02;;;;;;;14.03;8.60;;;-1.20;53.50;;;;;;10535706;28;20681;-64
2024/01/10 08:19:08;;;;;;;17.03;9.33;;;-1.10;53.40;;;;;;10541569;28;20218;-64
2024/01/10 08:24:14;;;;;;;13.87;8.93;;;-1.10;53.30;;;;;;10543647;28;20209;-64
2024/01/10 08:29:18;;;;;;;23.70;9.40;;;-1.10;53.40;;;;;;10543076;28;20221;-63
2024/01/10 08:34:53;;;;;;;16.93;9.83;;;-1.10;53.40;;;;;;10542560;28;20178;-64
2024/01/10 08:40:16;;;;;;;16.50;9.83;;;-1.00;53.40;;;;;;10531406;28;20234;-61
2024/01/10 08:45:24;;;;;;;17.27;9.83;;;-1.00;53.40;;;;;;10542312;28;20217;-63
2024/01/10 08:50:30;;;;;;;17.23;9.67;;;-1.00;53.40;;;;;;10541922;28;20218;-62
2024/01/10 08:55:37;;;;;;;18.47;9.70;;;-1.00;53.70;;;;;;10541550;28;20201;-63
2024/01/10 09:00:44;;;;;;;16.70;9.80;;;-0.90;53.60;;;;;;10533034;28;20201;-63
2024/01/10 09:05:49;;;;;;;16.07;10.17;;;-0.80;53.70;;;;;;10540842;28;20343;-64
2024/01/10 09:11:07;;;;;;;20.07;11.03;;;-0.80;53.50;;;;;;10528236;28;20206;-64
2024/01/10 09:16:11;;;;;;;15.90;9.80;;;-0.80;53.30;;;;;;10540060;28;20244;-64
2024/01/10 09:21:20;;;;;;;18.73;11.07;;;-0.70;53.10;;;;;;10521002;28;20205;-63
2024/01/10 09:26:23;;;;;;;19.03;10.90;;;-0.70;53.20;;;;;;10571619;28;20225;-65
2024/01/10 09:31:27;;;;;;;17.37;10.50;;;-0.60;53.60;;;;;;10563353;28;20186;-64
2024/01/10 09:36:32;;;;;;;17.90;10.70;;;-0.60;53.80;;;;;;10539510;28;20251;-61
2024/01/10 09:41:41;;;;;;;17.77;10.97;;;-0.50;53.80;;;;;;10539362;28;20631;-60
2024/01/10 09:46:48;;;;;;;17.57;11.23;;;-0.40;54.20;;;;;;10539289;28;20226;-61
2024/01/10 09:52:00;;;;;;;24.03;12.93;;;-0.40;53.90;;;;;;10539240;28;20194;-60
2024/01/10 09:57:04;;;;;;;19.27;11.67;;;-0.30;55.00;;;;;;10538725;28;20620;-60
2024/01/10 10:02:08;;;;;;;20.03;12.03;;;-0.30;55.30;;;;;;10538725;28;20270;-61
2024/01/10 10:07:13;;;;;;;20.57;12.40;;;-0.30;55.30;;;;;;10538959;28;20214;-60
2024/01/10 10:12:20;;;;;;;20.63;12.47;;;-0.20;56.80;;;;;;10515272;28;20290;-61
2024/01/10 10:17:29;;;;;;;23.57;12.27;;;-0.10;54.50;;;;;;10496339;28;20219;-61
2024/01/10 10:22:34;;;;;;;22.00;12.40;;;0.00;55.50;;;;;;10520154;28;20247;-61
2024/01/10 10:27:40;;;;;;;19.53;12.67;;;0.00;54.50;;;;;;10538007;28;20222;-73
2024/01/10 10:32:47;;;;;;;20.57;12.57;;;0.10;56.10;;;;;;10537303;28;20228;-62
2024/01/10 10:37:54;;;;;;;22.13;12.87;;;0.20;55.80;;;;;;10537234;28;20267;-62
2024/01/10 10:42:59;;;;;;;23.60;12.90;;;0.30;56.30;;;;;;10536581;28;20224;-60
2024/01/10 10:48:10;;;;;;;21.37;12.37;;;0.40;54.00;;;;;;10534441;28;20263;-65
2024/01/10 10:53:15;;;;;;;22.03;13.60;;;0.40;54.20;;;;;;10534480;28;20225;-65
2024/01/10 10:58:27;;;;;;;24.63;12.93;;;0.50;54.60;;;;;;10535573;28;20239;-65
2024/01/10 11:03:36;;;;;;;22.53;13.97;;;0.60;53.80;;;;;;10533378;28;20222;-65
2024/01/10 11:08:49;;;;;;;23.13;13.77;;;0.60;54.30;;;;;;10524407;28;20218;-65
2024/01/10 11:14:07;;;;;;;26.63;14.10;;;0.70;53.60;;;;;;10519778;28;20215;-65
2024/01/10 11:19:31;;;;;;;22.03;13.13;;;0.80;53.80;;;;;;10516552;28;20283;-66
2024/01/10 11:24:36;;;;;;;21.50;13.17;;;0.80;53.50;;;;;;10543607;28;20318;-65
2024/01/10 11:29:40;;;;;;;21.03;12.60;;;0.90;53.60;;;;;;10555738;28;20279;-65
2024/01/10 11:34:54;;;;;;;22.20;13.63;;;0.90;53.10;;;;;;10549312;28;20195;-65
2024/01/10 11:40:00;;;;;;;25.47;13.90;;;1.00;53.30;;;;;;10541111;28;20223;-65
2024/01/10 11:45:06;;;;;;;21.87;12.73;;;1.00;53.00;;;;;;10543388;28;20273;-65
2024/01/10 11:50:21;;;;;;;26.03;13.13;;;1.10;52.90;;;;;;10539851;28;20249;-66
2024/01/10 11:55:51;;;;;;;22.57;12.77;;;1.20;52.90;;;;;;10570864;28;20738;-65
2024/01/10 12:00:55;;;;;;;20.60;12.10;;;1.30;52.60;;;;;;10570622;28;20590;-65
2024/01/10 12:06:00;;;;;;;20.90;12.37;;;1.30;53.00;;;;;;10568135;28;20292;-65
2024/01/10 12:11:08;;;;;;;19.83;12.57;;;1.40;53.20;;;;;;10564661;28;20197;-65
2024/01/10 12:16:15;;;;;;;21.67;12.33;;;1.50;53.00;;;;;;10561079;28;20239;-65
2024/01/10 12:21:19;;;;;;;21.27;12.87;;;1.50;54.80;;;;;;10560007;28;20742;-65
2024/01/10 12:26:24;;;;;;;22.17;12.63;;;1.60;53.70;;;;;;10564029;28;20624;-65
2024/01/10 12:31:31;;;;;;;22.27;12.63;;;1.70;52.50;;;;;;10566087;28;20199;-65
2024/01/10 12:36:34;;;;;;;18.80;12.40;;;1.80;58.70;;;;;;10554456;28;20217;-65
2024/01/10 12:41:41;;;;;;;19.10;12.20;;;2.00;56.30;;;;;;10554354;28;20205;-64
2024/01/10 12:46:54;;;;;;;21.03;12.67;;;2.40;55.90;;;;;;10561848;28;20819;-65
2024/01/10 12:52:05;;;;;;;18.77;13.17;;;2.70;55.40;;;;;;10561100;28;20194;-66
2024/01/10 12:57:16;;;;;;;19.73;12.43;;;2.90;56.30;;;;;;10557932;28;20634;-65
2024/01/10 13:02:22;;;;;;;21.37;13.30;;;3.20;55.90;;;;;;10565527;28;20591;-66
2024/01/10 13:07:34;;;;;;;19.70;12.67;;;3.40;55.40;;;;;;10563077;28;20292;-65
2024/01/10 13:12:43;;;;;;;20.47;13.87;;;3.40;54.10;;;;;;10555943;28;20201;-65
2024/01/10 13:17:46;;;;;;;19.90;12.67;;;3.60;55.90;;;;;;10557562;28;20242;-65
2024/01/10 13:22:51;;;;;;;22.63;12.97;;;3.70;55.50;;;;;;10553859;28;20197;-66
2024/01/10 13:27:59;;;;;;;21.30;13.60;;;3.70;58.00;;;;;;10549261;28;20225;-65
2024/01/10 13:33:05;;;;;;;19.80;12.73;;;3.60;56.00;;;;;;10552234;28;20214;-65
2024/01/10 13:38:12;;;;;;;17.13;12.27;;;3.40;53.80;;;;;;10547362;28;20242;-65
2024/01/10 13:43:17;;;;;;;20.43;12.93;;;3.30;52.50;;;;;;10562542;28;20665;-65
2024/01/10 13:48:20;;;;;;;21.75;15.80;;;3.10;53.40;;;;;;10556060;28;20451;-65
2024/01/10 13:53:26;;;;;;;21.37;13.13;;;3.10;52.60;;;;;;10540347;28;20565;-66
2024/01/10 13:58:34;;;;;;;20.77;13.43;;;3.00;51.80;;;;;;10561464;28;20214;-66
2024/01/10 14:03:38;;;;;;;22.50;13.10;;;2.90;51.80;;;;;;10560193;28;20337;-66
2024/01/10 14:08:47;;;;;;;19.93;13.30;;;2.80;52.20;;;;;;10554901;28;20463;-67
2024/01/10 14:13:55;;;;;;;20.90;13.00;;;2.70;51.60;;;;;;10556768;28;20231;-65
2024/01/10 14:19:05;;;;;;;19.33;12.47;;;2.70;52.30;;;;;;10554579;28;21137;-64
2024/01/10 14:24:11;;;;;;;22.63;13.23;;;2.60;52.40;;;;;;10549247;28;20254;-65
2024/01/10 14:29:16;;;;;;;23.97;13.43;;;2.60;52.20;;;;;;10545139;28;20932;-66
2024/01/10 14:34:23;;;;;;;18.33;12.17;;;2.50;52.10;;;;;;10544871;28;20201;-66
2024/01/10 14:39:30;;;;;;;22.23;13.13;;;2.50;52.10;;;;;;10551945;28;20221;-66
2024/01/10 14:44:36;;;;;;;24.50;14.03;;;2.50;52.10;;;;;;10540293;28;20205;-65
2024/01/10 14:49:40;;;;;;;25.20;14.10;;;2.40;52.10;;;;;;10543126;28;20215;-66
2024/01/10 14:54:44;;;;;;;21.43;13.70;;;2.40;52.10;;;;;;10551012;28;20666;-67
2024/01/10 14:59:49;;;;;;;23.13;13.77;;;2.40;52.20;;;;;;10537479;28;20265;-65
2024/01/10 15:04:54;;;;;;;21.00;13.23;;;2.40;52.70;;;;;;10538511;28;20214;-67
2024/01/10 15:10:02;;;;;;;21.33;13.50;;;2.30;52.50;;;;;;10530763;28;20822;-66
2024/01/10 15:15:09;;;;;;;24.53;13.77;;;2.30;52.60;;;;;;10536684;28;20203;-66
2024/01/10 15:20:13;;;;;;;23.23;14.20;;;2.30;52.60;;;;;;10554802;28;20220;-67
2024/01/10 15:25:16;;;;;;;23.97;14.40;;;2.20;52.60;;;;;;10552902;28;20217;-67
2024/01/10 15:30:22;;;;;;;24.30;14.00;;;2.20;52.80;;;;;;10540414;28;20843;-66
2024/01/10 15:35:36;;;;;;;24.80;14.03;;;2.20;52.80;;;;;;10531775;28;20204;-66
2024/01/10 15:40:41;;;;;;;24.47;13.90;;;2.20;52.80;;;;;;10548600;28;20220;-66
2024/01/10 15:45:46;;;;;;;25.93;14.40;;;2.10;53.00;;;;;;10543688;28;20209;-66
2024/01/10 15:50:49;;;;;;;21.60;14.43;;;2.10;53.00;;;;;;10563946;28;20204;-66
2024/01/10 15:55:55;;;;;;;24.50;14.97;;;2.10;53.10;;;;;;10553010;28;20197;-65
2024/01/10 16:01:01;;;;;;;23.67;15.40;;;2.00;53.00;;;;;;10546284;28;20270;-66
2024/01/10 16:06:05;;;;;;;26.97;19.37;;;2.00;53.50;;;;;;10552539;28;20504;-66
2024/01/10 16:11:08;;;;;;;22.87;14.57;;;2.10;52.70;;;;;;10553964;28;20196;-66
2024/01/10 16:16:13;;;;;;;21.87;12.70;;;2.10;53.20;;;;;;10545672;28;20228;-66
2024/01/10 16:21:17;;;;;;;19.63;12.60;;;2.00;53.00;;;;;;10543887;28;20203;-67
2024/01/10 16:26:21;;;;;;;22.27;15.63;;;2.00;53.30;;;;;;10540814;28;20533;-67
2024/01/10 16:31:26;;;;;;;23.77;12.70;;;2.00;52.90;;;;;;10532700;28;20201;-66
2024/01/10 16:36:29;;;;;;;21.85;16.25;;;1.90;52.90;;;;;;10533789;28;21037;-66
2024/01/10 16:41:33;;;;;;;20.47;13.83;;;2.10;52.60;;;;;;10555368;28;20277;-66
2024/01/10 16:46:38;;;;;;;18.90;12.60;;;2.00;53.00;;;;;;10554938;28;20799;-66
2024/01/10 16:51:42;;;;;;;20.13;13.37;;;1.90;53.00;;;;;;10541828;22;20222;-65
2024/01/10 16:56:46;;;;;;;23.77;17.30;;;1.80;53.20;;;;;;10403000;28;20449;-67
2024/01/10 17:01:51;;;;;;;21.07;14.17;;;1.80;53.40;;;;;;10406103;28;20846;-65
2024/01/10 17:06:55;;;;;;;20.63;14.03;;;1.80;53.40;;;;;;10402985;28;22103;-64
2024/01/10 17:11:59;;;;;;;20.17;13.50;;;1.70;53.40;;;;;;10406252;28;20218;-64
2024/01/10 17:17:04;;;;;;;22.43;13.03;;;1.70;53.60;;;;;;10400128;28;20203;-65
2024/01/10 17:22:11;;;;;;;23.00;14.23;;;1.60;53.60;;;;;;10406358;28;20242;-64
2024/01/10 17:27:14;;;;;;;21.60;14.30;;;1.60;53.60;;;;;;10403182;28;20771;-63
2024/01/10 17:32:19;;;;;;;22.50;15.20;;;1.60;53.90;;;;;;10398742;28;20225;-63
2024/01/10 17:37:23;;;;;;;22.73;14.23;;;1.50;53.90;;;;;;10398108;28;20251;-63
2024/01/10 17:42:27;;;;;;;23.83;15.27;;;1.50;54.00;;;;;;10398009;28;20424;-62
2024/01/10 17:47:33;;;;;;;27.23;17.35;;;1.50;54.80;;;;;;10401595;28;20486;-63
2024/01/10 17:52:37;;;;;;;25.23;15.10;;;1.40;54.20;;;;;;10407114;28;20223;-62
2024/01/10 17:57:41;;;;;;;25.93;15.83;;;1.40;54.30;;;;;;10411266;28;20233;-63
2024/01/10 18:02:46;;;;;;;25.40;16.03;;;1.40;54.40;;;;;;10404299;28;20630;-63
2024/01/10 18:07:50;;;;;;;27.70;17.37;;;1.40;54.50;;;;;;10410872;28;20250;-64
2024/01/10 18:12:57;;;;;;;26.93;17.60;;;1.30;54.50;;;;;;10408511;28;20628;-64
2024/01/10 18:18:02;;;;;;;26.23;16.27;;;1.30;54.70;;;;;;10408555;28;20196;-63
2024/01/10 18:23:06;;;;;;;27.07;17.07;;;1.30;54.70;;;;;;10403918;28;20280;-62
2024/01/10 18:28:10;;;;;;;29.07;19.07;;;1.20;54.80;;;;;;10403770;28;20914;-62
2024/01/10 18:33:15;;;;;;;31.27;18.20;;;1.20;55.50;;;;;;10400913;28;20593;-62
2024/01/10 18:38:19;;;;;;;28.97;18.77;;;1.20;55.00;;;;;;10405118;28;20220;-61
2024/01/10 18:43:23;;;;;;;26.53;17.77;;;1.20;55.10;;;;;;10402522;28;20585;-62
2024/01/10 18:48:28;;;;;;;30.13;18.40;;;1.10;55.20;;;;;;10403375;28;20274;-61
2024/01/10 18:53:34;;;;;;;30.67;17.73;;;1.10;55.40;;;;;;10403129;28;20236;-61
2024/01/10 18:58:38;;;;;;;28.17;18.40;;;1.10;55.50;;;;;;10401366;28;20201;-63
2024/01/10 19:03:43;;;;;;;28.77;17.33;;;1.00;55.60;;;;;;10393582;28;20301;-61
2024/01/10 19:08:46;;;;;;;31.50;18.63;;;1.00;55.70;;;;;;10393967;28;20309;-61
2024/01/10 19:13:50;;;;;;;33.10;19.23;;;1.00;55.90;;;;;;10403463;28;20282;-62
2024/01/10 19:18:55;;;;;;;28.07;17.67;;;1.00;56.00;;;;;;10403769;28;20232;-64
2024/01/10 19:23:59;;;;;;;32.67;19.97;;;1.00;56.80;;;;;;10393867;28;20267;-63
2024/01/10 19:29:03;;;;;;;32.80;19.90;;;1.00;56.60;;;;;;10402160;28;21752;-64
2024/01/10 19:34:09;;;;;;;34.17;19.80;;;0.90;56.70;;;;;;10401575;28;20799;-63
2024/01/10 19:39:13;;;;;;;32.47;20.20;;;0.90;56.40;;;;;;10402186;28;20192;-62
2024/01/10 19:44:17;;;;;;;33.40;20.57;;;0.90;56.30;;;;;;10399452;28;20861;-61
2024/01/10 19:49:22;;;;;;;32.20;20.00;;;0.90;56.30;;;;;;10394956;28;20275;-63
2024/01/10 19:54:26;;;;;;;33.57;20.13;;;0.80;56.50;;;;;;10397656;28;20576;-63
2024/01/10 19:59:29;;;;;;;34.00;20.73;;;0.80;56.50;;;;;;10399445;28;20197;-63
2024/01/10 20:04:34;;;;;;;32.57;20.57;;;0.80;56.50;;;;;;10396073;28;20216;-63
2024/01/10 20:09:38;;;;;;;36.13;21.63;;;0.80;56.60;;;;;;10397091;28;20270;-63
2024/01/10 20:14:42;;;;;;;33.13;20.23;;;0.70;56.80;;;;;;10406278;28;20259;-63
2024/01/10 20:19:47;;;;;;;33.17;21.40;;;0.70;56.90;;;;;;10408164;28;20196;-63
2024/01/10 20:24:51;;;;;;;35.77;21.60;;;0.70;56.80;;;;;;10410772;28;20760;-62
2024/01/10 20:29:54;;;;;;;34.93;22.40;;;0.70;56.90;;;;;;10412290;28;20385;-63
2024/01/10 20:35:00;;;;;;;36.00;21.87;;;0.70;57.00;;;;;;10408431;28;20793;-63
2024/01/10 20:40:05;;;;;;;34.40;21.57;;;0.60;57.10;;;;;;10408921;28;20935;-63
2024/01/10 20:45:09;;;;;;;37.67;23.57;;;0.60;57.00;;;;;;10407713;28;20220;-62
2024/01/10 20:50:14;;;;;;;39.53;23.30;;;0.60;56.90;;;;;;10406663;28;20220;-63
2024/01/10 20:55:18;;;;;;;36.33;22.10;;;0.60;57.10;;;;;;10398860;28;20258;-63
2024/01/10 21:00:24;;;;;;;37.83;23.07;;;0.50;57.20;;;;;;10403421;28;20270;-62
2024/01/10 21:05:29;;;;;;;34.40;22.30;;;0.50;57.30;;;;;;10403094;28;20196;-62
2024/01/10 21:10:33;;;;;;;37.23;22.97;;;0.50;57.40;;;;;;10406371;28;20220;-65
2024/01/10 21:15:37;;;;;;;35.37;22.37;;;0.40;57.50;;;;;;10408668;28;20744;-64
2024/01/10 21:20:42;;;;;;;41.70;30.83;;;0.40;57.60;;;;;;10401429;28;20504;-66
2024/01/10 21:25:45;;;;;;;44.70;25.43;;;0.60;57.80;;;;;;10400687;28;20768;-68
2024/01/10 21:30:49;;;;;;;40.57;25.63;;;0.50;57.70;;;;;;10397791;28;20282;-68
2024/01/10 21:35:54;;;;;;;42.87;25.23;;;0.50;57.70;;;;;;10396487;28;20304;-66
2024/01/10 21:40:58;;;;;;;37.20;23.53;;;0.40;57.70;;;;;;10404272;28;20330;-67
2024/01/10 21:46:02;;;;;;;42.07;25.37;;;0.40;58.00;;;;;;10406433;28;20562;-66
2024/01/10 21:51:06;;;;;;;37.83;23.67;;;0.40;58.10;;;;;;10399619;28;20252;-66
2024/01/10 21:56:11;;;;;;;41.10;25.30;;;0.30;58.10;;;;;;10406393;28;20204;-66
2024/01/10 22:01:15;;;;;;;39.60;23.23;;;0.30;57.90;;;;;;10398728;28;20270;-66
2024/01/10 22:06:20;;;;;;;39.83;23.60;;;0.20;58.10;;;;;;10399157;28;20246;-66
2024/01/10 22:11:24;;;;;;;37.40;23.73;;;0.20;58.20;;;;;;10398978;28;20699;-66
2024/01/10 22:16:28;;;;;;;36.93;23.20;;;0.20;58.40;;;;;;10406915;28;20246;-66
2024/01/10 22:21:33;;;;;;;39.40;23.30;;;0.20;58.10;;;;;;10407001;28;20216;-67
2024/01/10 22:26:38;;;;;;;40.83;23.20;;;0.20;58.50;;;;;;10408285;28;20196;-67
2024/01/10 22:31:42;;;;;;;37.50;21.60;;;0.10;58.50;;;;;;10404236;28;20366;-66
2024/01/10 22:36:47;;;;;;;35.13;22.80;;;0.20;58.70;;;;;;10400811;28;20441;-66
2024/01/10 22:41:50;;;;;;;41.73;24.10;;;0.20;58.50;;;;;;10403876;28;20217;-67
2024/01/10 22:46:54;;;;;;;38.10;23.30;;;0.10;58.40;;;;;;10403211;28;20266;-65
2024/01/10 22:51:59;;;;;;;38.80;23.90;;;0.10;58.40;;;;;;10405320;28;20227;-64
2024/01/10 22:57:03;;;;;;;39.80;24.47;;;0.10;58.50;;;;;;10405776;28;20231;-65
2024/01/10 23:02:07;;;;;;;38.23;22.90;;;0.10;58.50;;;;;;10398331;28;20266;-65
2024/01/10 23:07:13;;;;;;;38.50;23.87;;;0.00;59.10;;;;;;10403625;28;20196;-65
2024/01/10 23:12:16;;;;;;;40.90;23.57;;;0.00;58.50;;;;;;10403690;28;20220;-64
2024/01/10 23:17:20;;;;;;;43.00;24.33;;;0.00;58.60;;;;;;10403617;28;20244;-66
2024/01/10 23:22:25;;;;;;;39.23;23.37;;;0.00;58.50;;;;;;10405312;28;20274;-65
2024/01/10 23:27:29;;;;;;;43.00;24.10;;;-0.10;58.40;;;;;;10404566;28;20200;-64
2024/01/10 23:32:32;;;;;;;37.60;24.20;;;-0.10;58.60;;;;;;10401552;28;20820;-65
2024/01/10 23:37:38;;;;;;;40.33;23.67;;;-0.10;58.80;;;;;;10404395;28;20204;-65
2024/01/10 23:42:42;;;;;;;39.00;24.07;;;-0.10;58.80;;;;;;10400556;28;20217;-65
2024/01/10 23:47:47;;;;;;;42.50;26.10;;;-0.20;58.60;;;;;;10403008;28;20208;-65
2024/01/10 23:52:53;;;;;;;43.37;24.50;;;-0.20;58.70;;;;;;10412736;28;20264;-64
2024/01/10 23:57:56;;;;;;;39.87;24.27;;;-0.30;59.20;;;;;;10413113;28;20204;-66
